EGPN/DND METAR and TAF weather

Enter ICAO airport designator
Station Type Date Time Source
EGPN METAR 2019/04/18 19:20 UTC NOAA

EGPN 181920Z 09008KT 8000 SCT009 09/07 Q1030


Station Type Date Time Source
EGPN Decoded METAR 2019/04/18 19:20 UTC NOAA

Dundee / Riverside, United Kingdom (EGPN) 56-27N 003-01W
Apr 18, 2019 - 03:20 PM EDT / 2019.04.18 1920 UTC
Wind: from the E (090 degrees) at 9 MPH (8 KT):0
Visibility: 4 mile(s):0
Sky conditions: partly cloudy
Temperature: 48 F (9 C)
Dew Point: 44 F (7 C)
Relative Humidity: 87%
Pressure (altimeter): 30.42 in. Hg (1030 hPa)
ob: EGPN 181920Z 09008KT 8000 SCT009 09/07 Q1030
cycle: 19

Station Type Date Time Source
EGPN TAF 2019/01/15 18:56 UTC NOAA

TAF EGPN 151750Z 1518/1621 CNL

Example: see airport list